< < Back
Terminal Aerodrome Forecast


Current Version              Previous Versions:   1  2  3  4  5  6  7  8  9  

Terminal Aerodrome Forecast

101
FTUS42 KCAE 060800 AAB
TAFCAE
TAF AMD
KCAE 060836Z 0609/0706 05010KT P6SM SCT015 OVC025
      TEMPO 0609/0612 BKN015
     FM061600 04012KT P6SM SCT050
     FM061800 04008KT P6SM SCT250
     FM070100 VRB03KT P6SM SCT250=



Latest METAR

622
SAUS80 KWBC 061100 RRA
MTRCAE
METAR KCAE 061056Z 04008KT 10SM BKN024 OVC046 04/M01 A3037 RMK AO2
SLP286 T00391006


USA.gov is the U.S. government's official web portal to all federal, state and local government web resources and services.